sensor_id;sensor_type;location;lat;lon;timestamp;P1;durP1;ratioP1;P2;durP2;ratioP2
29184;SDS011;16233;47.964;-3.842;2022-10-04T00:01:44;14.95;;;7.00;;
29184;SDS011;16233;47.964;-3.842;2022-10-04T00:03:48;25.23;;;7.72;;
29184;SDS011;16233;47.964;-3.842;2022-10-04T00:06:00;18.95;;;7.47;;
29184;SDS011;16233;47.964;-3.842;2022-10-04T00:08:05;18.40;;;7.85;;
29184;SDS011;16233;47.964;-3.842;2022-10-04T00:10:23;22.90;;;8.48;;
29184;SDS011;16233;47.964;-3.842;2022-10-04T00:12:29;21.80;;;7.88;;
29184;SDS011;16233;47.964;-3.842;2022-10-04T00:14:34;23.23;;;7.90;;
29184;SDS011;16233;47.964;-3.842;2022-10-04T00:16:39;32.22;;;9.07;;
29184;SDS011;16233;47.964;-3.842;2022-10-04T00:18:44;25.13;;;7.63;;
29184;SDS011;16233;47.964;-3.842;2022-10-04T00:20:55;28.88;;;8.95;;
29184;SDS011;16233;47.964;-3.842;2022-10-04T00:25:34;25.48;;;7.53;;
29184;SDS011;16233;47.964;-3.842;2022-10-04T00:27:35;25.85;;;8.27;;
29184;SDS011;16233;47.964;-3.842;2022-10-04T00:29:39;28.85;;;8.63;;
29184;SDS011;16233;47.964;-3.842;2022-10-04T00:36:52;29.75;;;9.45;;
29184;SDS011;16233;47.964;-3.842;2022-10-04T00:39:01;44.80;;;9.60;;
29184;SDS011;16233;47.964;-3.842;2022-10-04T00:41:12;26.23;;;9.25;;
29184;SDS011;16233;47.964;-3.842;2022-10-04T00:43:14;29.20;;;8.93;;
29184;SDS011;16233;47.964;-3.842;2022-10-04T00:45:26;28.52;;;9.57;;
29184;SDS011;16233;47.964;-3.842;2022-10-04T00:47:34;21.58;;;8.63;;
29184;SDS011;16233;47.964;-3.842;2022-10-04T00:49:55;27.02;;;9.00;;
29184;SDS011;16233;47.964;-3.842;2022-10-04T00:52:04;31.25;;;9.68;;
29184;SDS011;16233;47.964;-3.842;2022-10-04T00:54:10;34.83;;;9.43;;
29184;SDS011;16233;47.964;-3.842;2022-10-04T00:56:17;24.70;;;8.90;;
29184;SDS011;16233;47.964;-3.842;2022-10-04T00:58:24;28.40;;;9.80;;
29184;SDS011;16233;47.964;-3.842;2022-10-04T01:00:30;23.23;;;8.93;;
29184;SDS011;16233;47.964;-3.842;2022-10-04T01:02:32;26.27;;;9.68;;
29184;SDS011;16233;47.964;-3.842;2022-10-04T01:04:46;22.02;;;8.05;;
29184;SDS011;16233;47.964;-3.842;2022-10-04T01:06:53;28.63;;;8.95;;
29184;SDS011;16233;47.964;-3.842;2022-10-04T01:09:00;19.90;;;7.95;;
29184;SDS011;16233;47.964;-3.842;2022-10-04T01:11:05;21.70;;;8.63;;
29184;SDS011;16233;47.964;-3.842;2022-10-04T01:13:12;21.42;;;8.30;;
29184;SDS011;16233;47.964;-3.842;2022-10-04T01:15:17;34.17;;;8.70;;
29184;SDS011;16233;47.964;-3.842;2022-10-04T01:17:28;25.17;;;8.73;;
29184;SDS011;16233;47.964;-3.842;2022-10-04T01:19:30;35.78;;;9.32;;
29184;SDS011;16233;47.964;-3.842;2022-10-04T01:21:31;42.28;;;9.90;;
29184;SDS011;16233;47.964;-3.842;2022-10-04T01:23:42;48.60;;;10.52;;
29184;SDS011;16233;47.964;-3.842;2022-10-04T01:25:45;27.90;;;9.27;;
29184;SDS011;16233;47.964;-3.842;2022-10-04T01:27:48;28.75;;;9.50;;
29184;SDS011;16233;47.964;-3.842;2022-10-04T01:29:49;21.60;;;8.35;;
29184;SDS011;16233;47.964;-3.842;2022-10-04T01:31:50;29.85;;;9.13;;
29184;SDS011;16233;47.964;-3.842;2022-10-04T01:33:52;36.58;;;10.75;;
29184;SDS011;16233;47.964;-3.842;2022-10-04T01:35:54;33.25;;;9.75;;
29184;SDS011;16233;47.964;-3.842;2022-10-04T01:37:55;30.77;;;9.55;;
29184;SDS011;16233;47.964;-3.842;2022-10-04T01:39:58;29.55;;;9.15;;
29184;SDS011;16233;47.964;-3.842;2022-10-04T01:42:00;36.10;;;9.95;;
29184;SDS011;16233;47.964;-3.842;2022-10-04T01:44:08;31.88;;;10.02;;
29184;SDS011;16233;47.964;-3.842;2022-10-04T01:46:12;34.85;;;10.20;;
29184;SDS011;16233;47.964;-3.842;2022-10-04T01:48:17;22.80;;;9.07;;
29184;SDS011;16233;47.964;-3.842;2022-10-04T01:50:26;20.80;;;8.93;;
29184;SDS011;16233;47.964;-3.842;2022-10-04T01:52:31;27.77;;;9.50;;
29184;SDS011;16233;47.964;-3.842;2022-10-04T01:54:37;20.05;;;8.80;;
29184;SDS011;16233;47.964;-3.842;2022-10-04T01:56:45;15.73;;;6.88;;
29184;SDS011;16233;47.964;-3.842;2022-10-04T01:58:51;12.55;;;6.20;;
29184;SDS011;16233;47.964;-3.842;2022-10-04T02:00:56;10.63;;;5.38;;
29184;SDS011;16233;47.964;-3.842;2022-10-04T02:03:00;12.25;;;4.70;;
29184;SDS011;16233;47.964;-3.842;2022-10-04T02:05:08;7.82;;;4.50;;
29184;SDS011;16233;47.964;-3.842;2022-10-04T02:07:12;11.27;;;5.47;;
29184;SDS011;16233;47.964;-3.842;2022-10-04T02:09:17;9.07;;;4.32;;
29184;SDS011;16233;47.964;-3.842;2022-10-04T02:11:22;10.07;;;3.83;;
29184;SDS011;16233;47.964;-3.842;2022-10-04T02:13:31;8.25;;;3.63;;
29184;SDS011;16233;47.964;-3.842;2022-10-04T02:15:34;5.38;;;3.78;;
29184;SDS011;16233;47.964;-3.842;2022-10-04T02:17:38;8.90;;;4.10;;
29184;SDS011;16233;47.964;-3.842;2022-10-04T02:19:41;6.13;;;3.53;;
29184;SDS011;16233;47.964;-3.842;2022-10-04T02:21:42;5.07;;;2.88;;
29184;SDS011;16233;47.964;-3.842;2022-10-04T02:23:44;5.13;;;2.90;;
29184;SDS011;16233;47.964;-3.842;2022-10-04T02:25:46;7.28;;;2.70;;
29184;SDS011;16233;47.964;-3.842;2022-10-04T02:27:50;5.63;;;2.92;;
29184;SDS011;16233;47.964;-3.842;2022-10-04T02:29:53;5.07;;;3.05;;
29184;SDS011;16233;47.964;-3.842;2022-10-04T02:32:00;6.88;;;2.90;;
29184;SDS011;16233;47.964;-3.842;2022-10-04T02:34:04;6.40;;;3.03;;
29184;SDS011;16233;47.964;-3.842;2022-10-04T02:36:06;4.90;;;2.80;;
29184;SDS011;16233;47.964;-3.842;2022-10-04T02:38:08;4.50;;;2.00;;
29184;SDS011;16233;47.964;-3.842;2022-10-04T02:40:15;3.50;;;2.30;;
29184;SDS011;16233;47.964;-3.842;2022-10-04T02:42:20;3.83;;;2.47;;
29184;SDS011;16233;47.964;-3.842;2022-10-04T02:44:26;10.93;;;2.30;;
29184;SDS011;16233;47.964;-3.842;2022-10-04T02:46:33;4.40;;;2.22;;
29184;SDS011;16233;47.964;-3.842;2022-10-04T02:48:43;4.80;;;2.45;;
29184;SDS011;16233;47.964;-3.842;2022-10-04T02:50:47;5.00;;;2.30;;
29184;SDS011;16233;47.964;-3.842;2022-10-04T02:52:52;3.05;;;2.00;;
29184;SDS011;16233;47.964;-3.842;2022-10-04T02:54:56;8.75;;;3.28;;
29184;SDS011;16233;47.964;-3.842;2022-10-04T02:57:00;4.82;;;2.30;;
29184;SDS011;16233;47.964;-3.842;2022-10-04T02:59:02;4.30;;;2.03;;
29184;SDS011;16233;47.964;-3.842;2022-10-04T03:01:04;5.10;;;2.33;;
29184;SDS011;16233;47.964;-3.842;2022-10-04T03:03:18;5.00;;;2.20;;
29184;SDS011;16233;47.964;-3.842;2022-10-04T03:05:22;4.63;;;2.38;;
29184;SDS011;16233;47.964;-3.842;2022-10-04T03:07:23;6.82;;;2.05;;
29184;SDS011;16233;47.964;-3.842;2022-10-04T03:09:25;3.47;;;1.85;;
29184;SDS011;16233;47.964;-3.842;2022-10-04T03:11:27;6.72;;;2.20;;
29184;SDS011;16233;47.964;-3.842;2022-10-04T03:13:30;6.13;;;2.50;;
29184;SDS011;16233;47.964;-3.842;2022-10-04T03:15:32;6.93;;;2.30;;
29184;SDS011;16233;47.964;-3.842;2022-10-04T03:17:33;4.00;;;2.50;;
29184;SDS011;16233;47.964;-3.842;2022-10-04T03:19:39;6.78;;;2.72;;
29184;SDS011;16233;47.964;-3.842;2022-10-04T03:21:41;3.88;;;2.50;;
29184;SDS011;16233;47.964;-3.842;2022-10-04T03:23:45;4.75;;;2.80;;
29184;SDS011;16233;47.964;-3.842;2022-10-04T03:25:49;6.07;;;2.55;;
29184;SDS011;16233;47.964;-3.842;2022-10-04T03:27:55;5.82;;;2.50;;
29184;SDS011;16233;47.964;-3.842;2022-10-04T03:30:00;8.05;;;3.25;;
29184;SDS011;16233;47.964;-3.842;2022-10-04T03:32:02;7.90;;;3.05;;
29184;SDS011;16233;47.964;-3.842;2022-10-04T03:34:04;15.10;;;3.58;;
29184;SDS011;16233;47.964;-3.842;2022-10-04T03:36:12;5.78;;;2.40;;
29184;SDS011;16233;47.964;-3.842;2022-10-04T03:38:15;9.98;;;2.70;;
29184;SDS011;16233;47.964;-3.842;2022-10-04T03:40:17;5.28;;;2.20;;
29184;SDS011;16233;47.964;-3.842;2022-10-04T03:42:23;3.28;;;2.05;;
29184;SDS011;16233;47.964;-3.842;2022-10-04T03:44:26;3.45;;;1.98;;
29184;SDS011;16233;47.964;-3.842;2022-10-04T03:46:27;6.68;;;2.33;;
29184;SDS011;16233;47.964;-3.842;2022-10-04T03:48:30;5.00;;;2.40;;
29184;SDS011;16233;47.964;-3.842;2022-10-04T03:50:34;5.45;;;2.78;;
29184;SDS011;16233;47.964;-3.842;2022-10-04T03:52:43;6.80;;;2.60;;
29184;SDS011;16233;47.964;-3.842;2022-10-04T03:54:48;7.63;;;2.50;;
29184;SDS011;16233;47.964;-3.842;2022-10-04T03:56:51;6.05;;;2.35;;
29184;SDS011;16233;47.964;-3.842;2022-10-04T03:58:53;6.20;;;2.65;;
29184;SDS011;16233;47.964;-3.842;2022-10-04T04:01:02;9.82;;;2.38;;
29184;SDS011;16233;47.964;-3.842;2022-10-04T04:03:13;5.53;;;2.47;;
29184;SDS011;16233;47.964;-3.842;2022-10-04T04:05:18;5.60;;;2.50;;
29184;SDS011;16233;47.964;-3.842;2022-10-04T04:07:24;6.57;;;2.50;;
29184;SDS011;16233;47.964;-3.842;2022-10-04T04:09:34;2.50;;;2.17;;
29184;SDS011;16233;47.964;-3.842;2022-10-04T04:11:40;5.40;;;2.10;;
29184;SDS011;16233;47.964;-3.842;2022-10-04T04:13:43;8.73;;;2.40;;
29184;SDS011;16233;47.964;-3.842;2022-10-04T04:15:47;3.10;;;1.90;;
29184;SDS011;16233;47.964;-3.842;2022-10-04T04:17:49;4.20;;;2.03;;
29184;SDS011;16233;47.964;-3.842;2022-10-04T04:19:53;2.70;;;1.58;;
29184;SDS011;16233;47.964;-3.842;2022-10-04T04:21:58;2.97;;;2.00;;
29184;SDS011;16233;47.964;-3.842;2022-10-04T04:23:59;3.35;;;1.70;;
29184;SDS011;16233;47.964;-3.842;2022-10-04T04:26:12;5.45;;;1.60;;
29184;SDS011;16233;47.964;-3.842;2022-10-04T04:28:22;1.83;;;1.70;;
29184;SDS011;16233;47.964;-3.842;2022-10-04T04:30:25;3.97;;;1.45;;
29184;SDS011;16233;47.964;-3.842;2022-10-04T04:32:29;4.00;;;1.45;;
29184;SDS011;16233;47.964;-3.842;2022-10-04T04:34:43;2.28;;;1.40;;
29184;SDS011;16233;47.964;-3.842;2022-10-04T04:36:49;3.45;;;1.20;;
29184;SDS011;16233;47.964;-3.842;2022-10-04T04:39:05;1.92;;;1.00;;
29184;SDS011;16233;47.964;-3.842;2022-10-04T04:41:08;1.10;;;1.00;;
29184;SDS011;16233;47.964;-3.842;2022-10-04T04:43:17;2.78;;;1.30;;
29184;SDS011;16233;47.964;-3.842;2022-10-04T04:45:19;1.13;;;0.90;;
29184;SDS011;16233;47.964;-3.842;2022-10-04T04:47:27;2.92;;;0.90;;
29184;SDS011;16233;47.964;-3.842;2022-10-04T04:49:29;1.27;;;1.00;;
29184;SDS011;16233;47.964;-3.842;2022-10-04T04:51:31;2.20;;;1.02;;
29184;SDS011;16233;47.964;-3.842;2022-10-04T04:53:32;1.75;;;1.00;;
29184;SDS011;16233;47.964;-3.842;2022-10-04T04:55:36;0.80;;;0.80;;
29184;SDS011;16233;47.964;-3.842;2022-10-04T04:57:40;0.98;;;0.90;;
29184;SDS011;16233;47.964;-3.842;2022-10-04T04:59:44;1.10;;;1.10;;
29184;SDS011;16233;47.964;-3.842;2022-10-04T05:01:49;1.67;;;0.90;;
29184;SDS011;16233;47.964;-3.842;2022-10-04T05:04:00;0.90;;;0.90;;
29184;SDS011;16233;47.964;-3.842;2022-10-04T05:06:02;1.80;;;1.05;;
29184;SDS011;16233;47.964;-3.842;2022-10-04T05:08:10;2.50;;;1.27;;
29184;SDS011;16233;47.964;-3.842;2022-10-04T05:10:21;1.42;;;0.90;;
29184;SDS011;16233;47.964;-3.842;2022-10-04T05:12:28;0.80;;;0.80;;
29184;SDS011;16233;47.964;-3.842;2022-10-04T05:14:30;1.95;;;0.85;;
29184;SDS011;16233;47.964;-3.842;2022-10-04T05:16:34;2.58;;;1.20;;
29184;SDS011;16233;47.964;-3.842;2022-10-04T05:18:44;1.27;;;0.90;;
29184;SDS011;16233;47.964;-3.842;2022-10-04T05:20:46;2.03;;;0.90;;
29184;SDS011;16233;47.964;-3.842;2022-10-04T05:22:51;1.73;;;1.05;;
29184;SDS011;16233;47.964;-3.842;2022-10-04T05:24:52;1.02;;;1.00;;
29184;SDS011;16233;47.964;-3.842;2022-10-04T05:26:57;2.05;;;1.00;;
29184;SDS011;16233;47.964;-3.842;2022-10-04T05:29:01;1.20;;;1.10;;
29184;SDS011;16233;47.964;-3.842;2022-10-04T05:31:14;1.98;;;1.30;;
29184;SDS011;16233;47.964;-3.842;2022-10-04T05:33:37;1.88;;;1.00;;
29184;SDS011;16233;47.964;-3.842;2022-10-04T05:35:49;1.88;;;1.05;;
29184;SDS011;16233;47.964;-3.842;2022-10-04T05:38:02;0.70;;;0.70;;
29184;SDS011;16233;47.964;-3.842;2022-10-04T05:40:15;6.75;;;1.63;;
29184;SDS011;16233;47.964;-3.842;2022-10-04T05:42:35;3.40;;;1.10;;
29184;SDS011;16233;47.964;-3.842;2022-10-04T05:44:44;1.17;;;1.05;;
29184;SDS011;16233;47.964;-3.842;2022-10-04T05:46:48;2.00;;;0.90;;
29184;SDS011;16233;47.964;-3.842;2022-10-04T05:48:54;2.63;;;1.17;;
29184;SDS011;16233;47.964;-3.842;2022-10-04T05:50:58;0.80;;;0.80;;
29184;SDS011;16233;47.964;-3.842;2022-10-04T05:53:20;1.38;;;1.20;;
29184;SDS011;16233;47.964;-3.842;2022-10-04T05:55:26;1.63;;;0.93;;
29184;SDS011;16233;47.964;-3.842;2022-10-04T05:57:35;2.45;;;1.02;;
29184;SDS011;16233;47.964;-3.842;2022-10-04T06:01:51;3.15;;;1.30;;
29184;SDS011;16233;47.964;-3.842;2022-10-04T06:06:41;5.70;;;0.75;;
29184;SDS011;16233;47.964;-3.842;2022-10-04T06:08:50;4.05;;;0.98;;
29184;SDS011;16233;47.964;-3.842;2022-10-04T06:11:01;4.35;;;0.93;;
29184;SDS011;16233;47.964;-3.842;2022-10-04T06:13:25;5.22;;;1.10;;
29184;SDS011;16233;47.964;-3.842;2022-10-04T06:16:03;6.90;;;1.00;;
29184;SDS011;16233;47.964;-3.842;2022-10-04T06:18:21;3.53;;;0.95;;
29184;SDS011;16233;47.964;-3.842;2022-10-04T06:20:56;2.17;;;0.77;;
29184;SDS011;16233;47.964;-3.842;2022-10-04T06:23:18;0.98;;;0.80;;
29184;SDS011;16233;47.964;-3.842;2022-10-04T06:25:21;5.47;;;1.13;;
29184;SDS011;16233;47.964;-3.842;2022-10-04T06:27:26;1.20;;;1.10;;
29184;SDS011;16233;47.964;-3.842;2022-10-04T06:29:34;4.43;;;0.98;;
29184;SDS011;16233;47.964;-3.842;2022-10-04T06:37:06;1.85;;;0.82;;
29184;SDS011;16233;47.964;-3.842;2022-10-04T06:44:32;1.13;;;0.98;;
29184;SDS011;16233;47.964;-3.842;2022-10-04T06:46:54;4.50;;;1.05;;
29184;SDS011;16233;47.964;-3.842;2022-10-04T06:49:15;0.70;;;0.70;;
29184;SDS011;16233;47.964;-3.842;2022-10-04T06:51:42;1.85;;;1.10;;
29184;SDS011;16233;47.964;-3.842;2022-10-04T06:54:05;0.82;;;0.82;;
29184;SDS011;16233;47.964;-3.842;2022-10-04T06:56:24;2.25;;;1.20;;
29184;SDS011;16233;47.964;-3.842;2022-10-04T07:01:27;2.67;;;0.85;;
29184;SDS011;16233;47.964;-3.842;2022-10-04T07:03:31;8.18;;;1.67;;
29184;SDS011;16233;47.964;-3.842;2022-10-04T07:05:41;1.13;;;0.80;;
29184;SDS011;16233;47.964;-3.842;2022-10-04T07:07:46;4.93;;;1.02;;
29184;SDS011;16233;47.964;-3.842;2022-10-04T07:09:50;1.30;;;0.80;;
29184;SDS011;16233;47.964;-3.842;2022-10-04T07:11:57;4.50;;;0.80;;
29184;SDS011;16233;47.964;-3.842;2022-10-04T07:14:05;6.25;;;0.90;;
29184;SDS011;16233;47.964;-3.842;2022-10-04T07:16:18;1.58;;;0.82;;
29184;SDS011;16233;47.964;-3.842;2022-10-04T07:18:36;0.70;;;0.65;;
29184;SDS011;16233;47.964;-3.842;2022-10-04T07:20:43;1.17;;;0.80;;
29184;SDS011;16233;47.964;-3.842;2022-10-04T07:22:46;1.40;;;1.10;;
29184;SDS011;16233;47.964;-3.842;2022-10-04T07:24:58;2.30;;;0.90;;
29184;SDS011;16233;47.964;-3.842;2022-10-04T07:27:12;2.28;;;1.38;;
29184;SDS011;16233;47.964;-3.842;2022-10-04T07:29:18;1.73;;;0.60;;
29184;SDS011;16233;47.964;-3.842;2022-10-04T07:31:22;1.33;;;0.90;;
29184;SDS011;16233;47.964;-3.842;2022-10-04T07:33:26;0.90;;;0.70;;
29184;SDS011;16233;47.964;-3.842;2022-10-04T07:35:32;1.30;;;1.00;;
29184;SDS011;16233;47.964;-3.842;2022-10-04T07:37:44;5.20;;;1.05;;
29184;SDS011;16233;47.964;-3.842;2022-10-04T07:39:50;2.20;;;0.90;;
29184;SDS011;16233;47.964;-3.842;2022-10-04T07:41:58;1.42;;;1.02;;
29184;SDS011;16233;47.964;-3.842;2022-10-04T07:44:11;0.88;;;0.88;;
29184;SDS011;16233;47.964;-3.842;2022-10-04T07:46:21;2.10;;;1.50;;
29184;SDS011;16233;47.964;-3.842;2022-10-04T07:48:38;2.65;;;0.90;;
29184;SDS011;16233;47.964;-3.842;2022-10-04T07:50:40;2.25;;;0.88;;
29184;SDS011;16233;47.964;-3.842;2022-10-04T07:52:49;0.90;;;0.90;;
29184;SDS011;16233;47.964;-3.842;2022-10-04T07:54:57;1.98;;;0.90;;
29184;SDS011;16233;47.964;-3.842;2022-10-04T07:57:07;2.97;;;1.20;;
29184;SDS011;16233;47.964;-3.842;2022-10-04T07:59:21;2.28;;;0.80;;
29184;SDS011;16233;47.964;-3.842;2022-10-04T08:01:32;4.68;;;1.00;;
29184;SDS011;16233;47.964;-3.842;2022-10-04T08:03:40;5.60;;;0.90;;
29184;SDS011;16233;47.964;-3.842;2022-10-04T08:05:51;0.90;;;0.90;;
29184;SDS011;16233;47.964;-3.842;2022-10-04T08:08:03;1.70;;;1.00;;
29184;SDS011;16233;47.964;-3.842;2022-10-04T08:10:16;2.40;;;1.20;;
29184;SDS011;16233;47.964;-3.842;2022-10-04T08:12:24;3.80;;;1.10;;
29184;SDS011;16233;47.964;-3.842;2022-10-04T08:14:35;0.80;;;0.80;;
29184;SDS011;16233;47.964;-3.842;2022-10-04T08:16:48;1.40;;;0.95;;
29184;SDS011;16233;47.964;-3.842;2022-10-04T08:19:03;2.45;;;1.08;;
29184;SDS011;16233;47.964;-3.842;2022-10-04T08:21:16;1.35;;;1.10;;
29184;SDS011;16233;47.964;-3.842;2022-10-04T08:23:37;2.00;;;1.20;;
29184;SDS011;16233;47.964;-3.842;2022-10-04T08:25:48;1.67;;;1.02;;
29184;SDS011;16233;47.964;-3.842;2022-10-04T08:28:01;1.20;;;1.10;;
29184;SDS011;16233;47.964;-3.842;2022-10-04T08:30:11;2.03;;;1.10;;
29184;SDS011;16233;47.964;-3.842;2022-10-04T08:34:55;3.15;;;1.00;;
29184;SDS011;16233;47.964;-3.842;2022-10-04T08:37:07;3.15;;;0.90;;
29184;SDS011;16233;47.964;-3.842;2022-10-04T08:39:19;1.15;;;1.02;;
29184;SDS011;16233;47.964;-3.842;2022-10-04T08:41:52;1.20;;;1.08;;
29184;SDS011;16233;47.964;-3.842;2022-10-04T08:57:43;1.60;;;1.15;;
29184;SDS011;16233;47.964;-3.842;2022-10-04T09:00:14;1.77;;;1.30;;
29184;SDS011;16233;47.964;-3.842;2022-10-04T09:07:34;1.10;;;1.10;;
29184;SDS011;16233;47.964;-3.842;2022-10-04T09:10:12;1.58;;;1.48;;
29184;SDS011;16233;47.964;-3.842;2022-10-04T09:12:40;2.33;;;1.40;;
29184;SDS011;16233;47.964;-3.842;2022-10-04T09:17:41;2.55;;;1.60;;
29184;SDS011;16233;47.964;-3.842;2022-10-04T09:19:54;1.30;;;1.20;;
29184;SDS011;16233;47.964;-3.842;2022-10-04T09:22:06;2.33;;;2.00;;
29184;SDS011;16233;47.964;-3.842;2022-10-04T09:24:19;1.20;;;1.15;;
29184;SDS011;16233;47.964;-3.842;2022-10-04T09:26:43;1.77;;;1.30;;
29184;SDS011;16233;47.964;-3.842;2022-10-04T09:31:31;3.63;;;1.25;;
29184;SDS011;16233;47.964;-3.842;2022-10-04T09:33:51;1.50;;;1.40;;
29184;SDS011;16233;47.964;-3.842;2022-10-04T09:36:10;1.80;;;1.25;;
29184;SDS011;16233;47.964;-3.842;2022-10-04T09:41:13;2.35;;;1.70;;
29184;SDS011;16233;47.964;-3.842;2022-10-04T09:43:40;4.78;;;2.03;;
29184;SDS011;16233;47.964;-3.842;2022-10-04T09:46:02;0.95;;;0.95;;
29184;SDS011;16233;47.964;-3.842;2022-10-04T09:53:19;0.90;;;0.90;;
29184;SDS011;16233;47.964;-3.842;2022-10-04T09:55:48;1.30;;;1.20;;
29184;SDS011;16233;47.964;-3.842;2022-10-04T09:58:07;1.20;;;1.10;;
29184;SDS011;16233;47.964;-3.842;2022-10-04T10:00:21;0.90;;;0.90;;
29184;SDS011;16233;47.964;-3.842;2022-10-04T10:02:42;1.60;;;0.98;;
29184;SDS011;16233;47.964;-3.842;2022-10-04T10:05:24;0.70;;;0.70;;
29184;SDS011;16233;47.964;-3.842;2022-10-04T10:07:36;1.90;;;0.80;;
29184;SDS011;16233;47.964;-3.842;2022-10-04T10:09:44;0.77;;;0.77;;
29184;SDS011;16233;47.964;-3.842;2022-10-04T10:11:56;0.80;;;0.80;;
29184;SDS011;16233;47.964;-3.842;2022-10-04T10:16:48;0.68;;;0.68;;
29184;SDS011;16233;47.964;-3.842;2022-10-04T10:19:02;0.70;;;0.70;;
29184;SDS011;16233;47.964;-3.842;2022-10-04T10:21:20;0.95;;;0.95;;
29184;SDS011;16233;47.964;-3.842;2022-10-04T10:26:08;1.30;;;1.20;;
29184;SDS011;16233;47.964;-3.842;2022-10-04T10:28:45;0.70;;;0.70;;
29184;SDS011;16233;47.964;-3.842;2022-10-04T10:31:11;1.00;;;1.00;;
29184;SDS011;16233;47.964;-3.842;2022-10-04T10:36:12;2.75;;;0.90;;
29184;SDS011;16233;47.964;-3.842;2022-10-04T10:38:24;1.25;;;1.25;;
29184;SDS011;16233;47.964;-3.842;2022-10-04T10:40:46;1.17;;;1.00;;
29184;SDS011;16233;47.964;-3.842;2022-10-04T10:43:02;1.17;;;1.00;;
29184;SDS011;16233;47.964;-3.842;2022-10-04T10:48:11;0.90;;;0.90;;
29184;SDS011;16233;47.964;-3.842;2022-10-04T10:52:58;0.80;;;0.80;;
29184;SDS011;16233;47.964;-3.842;2022-10-04T10:55:47;1.40;;;0.77;;
29184;SDS011;16233;47.964;-3.842;2022-10-04T11:08:00;0.82;;;0.80;;
29184;SDS011;16233;47.964;-3.842;2022-10-04T11:13:14;0.90;;;0.90;;
29184;SDS011;16233;47.964;-3.842;2022-10-04T11:15:33;0.80;;;0.80;;
29184;SDS011;16233;47.964;-3.842;2022-10-04T11:25:58;0.80;;;0.80;;
29184;SDS011;16233;47.964;-3.842;2022-10-04T11:28:23;0.73;;;0.73;;
29184;SDS011;16233;47.964;-3.842;2022-10-04T11:30:38;0.82;;;0.82;;
29184;SDS011;16233;47.964;-3.842;2022-10-04T11:33:13;0.73;;;0.73;;
29184;SDS011;16233;47.964;-3.842;2022-10-04T11:38:32;0.98;;;0.98;;
29184;SDS011;16233;47.964;-3.842;2022-10-04T11:41:05;0.85;;;0.85;;
29184;SDS011;16233;47.964;-3.842;2022-10-04T11:43:20;1.20;;;0.90;;
29184;SDS011;16233;47.964;-3.842;2022-10-04T11:45:52;1.85;;;1.75;;
29184;SDS011;16233;47.964;-3.842;2022-10-04T11:48:08;1.00;;;1.00;;
29184;SDS011;16233;47.964;-3.842;2022-10-04T11:50:35;0.90;;;0.90;;
29184;SDS011;16233;47.964;-3.842;2022-10-04T11:53:01;0.80;;;0.80;;
29184;SDS011;16233;47.964;-3.842;2022-10-04T11:55:29;0.88;;;0.88;;
29184;SDS011;16233;47.964;-3.842;2022-10-04T11:57:52;0.90;;;0.90;;
29184;SDS011;16233;47.964;-3.842;2022-10-04T12:00:03;1.00;;;1.00;;
29184;SDS011;16233;47.964;-3.842;2022-10-04T12:02:16;1.05;;;1.05;;
29184;SDS011;16233;47.964;-3.842;2022-10-04T12:04:42;1.00;;;1.00;;
29184;SDS011;16233;47.964;-3.842;2022-10-04T12:06:58;0.90;;;0.90;;
29184;SDS011;16233;47.964;-3.842;2022-10-04T12:09:23;1.00;;;1.00;;
29184;SDS011;16233;47.964;-3.842;2022-10-04T12:14:09;0.90;;;0.90;;
29184;SDS011;16233;47.964;-3.842;2022-10-04T12:19:00;0.90;;;0.90;;
29184;SDS011;16233;47.964;-3.842;2022-10-04T12:21:28;1.33;;;1.23;;
29184;SDS011;16233;47.964;-3.842;2022-10-04T12:23:51;1.00;;;1.00;;
29184;SDS011;16233;47.964;-3.842;2022-10-04T12:26:22;0.85;;;0.85;;
29184;SDS011;16233;47.964;-3.842;2022-10-04T12:28:50;0.90;;;0.90;;
29184;SDS011;16233;47.964;-3.842;2022-10-04T12:33:29;1.10;;;1.10;;
29184;SDS011;16233;47.964;-3.842;2022-10-04T12:35:39;0.88;;;0.88;;
29184;SDS011;16233;47.964;-3.842;2022-10-04T12:38:07;1.05;;;1.00;;
29184;SDS011;16233;47.964;-3.842;2022-10-04T12:40:25;0.93;;;0.80;;
29184;SDS011;16233;47.964;-3.842;2022-10-04T12:42:32;0.80;;;0.80;;
29184;SDS011;16233;47.964;-3.842;2022-10-04T12:44:43;0.77;;;0.77;;
29184;SDS011;16233;47.964;-3.842;2022-10-04T12:47:01;1.17;;;1.00;;
29184;SDS011;16233;47.964;-3.842;2022-10-04T12:49:26;0.90;;;0.90;;
29184;SDS011;16233;47.964;-3.842;2022-10-04T12:51:38;0.95;;;0.90;;
29184;SDS011;16233;47.964;-3.842;2022-10-04T12:53:49;0.90;;;0.90;;
29184;SDS011;16233;47.964;-3.842;2022-10-04T12:56:04;0.93;;;0.90;;
29184;SDS011;16233;47.964;-3.842;2022-10-04T12:58:15;1.05;;;1.05;;
29184;SDS011;16233;47.964;-3.842;2022-10-04T13:00:21;2.10;;;0.90;;
29184;SDS011;16233;47.964;-3.842;2022-10-04T13:02:27;1.02;;;1.02;;
29184;SDS011;16233;47.964;-3.842;2022-10-04T13:04:40;0.90;;;0.90;;
29184;SDS011;16233;47.964;-3.842;2022-10-04T13:06:52;0.90;;;0.90;;
29184;SDS011;16233;47.964;-3.842;2022-10-04T13:09:05;0.70;;;0.70;;
29184;SDS011;16233;47.964;-3.842;2022-10-04T13:11:19;0.88;;;0.88;;
29184;SDS011;16233;47.964;-3.842;2022-10-04T13:13:46;1.13;;;1.13;;
29184;SDS011;16233;47.964;-3.842;2022-10-04T13:16:01;0.80;;;0.80;;
29184;SDS011;16233;47.964;-3.842;2022-10-04T13:18:13;1.13;;;1.10;;
29184;SDS011;16233;47.964;-3.842;2022-10-04T13:20:27;1.25;;;1.23;;
29184;SDS011;16233;47.964;-3.842;2022-10-04T13:22:41;0.90;;;0.90;;
29184;SDS011;16233;47.964;-3.842;2022-10-04T13:24:51;1.00;;;1.00;;
29184;SDS011;16233;47.964;-3.842;2022-10-04T13:27:01;0.90;;;0.90;;
29184;SDS011;16233;47.964;-3.842;2022-10-04T13:29:06;1.00;;;1.00;;
29184;SDS011;16233;47.964;-3.842;2022-10-04T13:31:18;2.03;;;1.10;;
29184;SDS011;16233;47.964;-3.842;2022-10-04T13:33:24;1.00;;;1.00;;
29184;SDS011;16233;47.964;-3.842;2022-10-04T13:35:35;0.90;;;0.90;;
29184;SDS011;16233;47.964;-3.842;2022-10-04T13:37:41;0.80;;;0.80;;
29184;SDS011;16233;47.964;-3.842;2022-10-04T13:42:24;0.90;;;0.90;;
29184;SDS011;16233;47.964;-3.842;2022-10-04T13:44:51;1.10;;;1.00;;
29184;SDS011;16233;47.964;-3.842;2022-10-04T13:47:15;1.30;;;1.20;;
29184;SDS011;16233;47.964;-3.842;2022-10-04T13:49:32;1.20;;;0.90;;
29184;SDS011;16233;47.964;-3.842;2022-10-04T13:51:54;4.53;;;1.80;;
29184;SDS011;16233;47.964;-3.842;2022-10-04T13:54:10;1.08;;;1.02;;
29184;SDS011;16233;47.964;-3.842;2022-10-04T13:56:21;1.02;;;1.00;;
29184;SDS011;16233;47.964;-3.842;2022-10-04T13:58:44;1.02;;;1.02;;
29184;SDS011;16233;47.964;-3.842;2022-10-04T14:00:53;1.20;;;1.10;;
29184;SDS011;16233;47.964;-3.842;2022-10-04T14:03:08;1.35;;;1.25;;
29184;SDS011;16233;47.964;-3.842;2022-10-04T14:08:22;0.95;;;0.95;;
29184;SDS011;16233;47.964;-3.842;2022-10-04T14:11:02;1.05;;;1.05;;
29184;SDS011;16233;47.964;-3.842;2022-10-04T14:13:39;1.30;;;1.00;;
29184;SDS011;16233;47.964;-3.842;2022-10-04T14:18:51;0.90;;;0.90;;
29184;SDS011;16233;47.964;-3.842;2022-10-04T14:21:23;1.02;;;0.85;;
29184;SDS011;16233;47.964;-3.842;2022-10-04T14:29:20;3.70;;;1.90;;
29184;SDS011;16233;47.964;-3.842;2022-10-04T14:31:58;2.55;;;1.40;;
29184;SDS011;16233;47.964;-3.842;2022-10-04T14:36:52;1.90;;;1.70;;
29184;SDS011;16233;47.964;-3.842;2022-10-04T14:39:14;2.20;;;1.20;;
29184;SDS011;16233;47.964;-3.842;2022-10-04T14:44:11;2.08;;;1.13;;
29184;SDS011;16233;47.964;-3.842;2022-10-04T14:46:33;1.10;;;1.00;;
29184;SDS011;16233;47.964;-3.842;2022-10-04T14:48:46;1.23;;;1.00;;
29184;SDS011;16233;47.964;-3.842;2022-10-04T14:51:03;1.27;;;0.90;;
29184;SDS011;16233;47.964;-3.842;2022-10-04T14:53:19;1.30;;;1.17;;
29184;SDS011;16233;47.964;-3.842;2022-10-04T14:55:35;1.95;;;0.88;;
29184;SDS011;16233;47.964;-3.842;2022-10-04T14:57:58;0.80;;;0.80;;
29184;SDS011;16233;47.964;-3.842;2022-10-04T15:00:21;1.55;;;0.90;;
29184;SDS011;16233;47.964;-3.842;2022-10-04T15:05:24;0.95;;;0.95;;
29184;SDS011;16233;47.964;-3.842;2022-10-04T15:07:29;1.80;;;1.65;;